sensor_id;sensor_type;location;lat;lon;timestamp;temperature;humidity
45066;DHT22;30830;53.704;10.004;2022-10-16T00:00:43;13.00;99.90
45066;DHT22;30830;53.704;10.004;2022-10-16T00:03:10;13.00;99.90
45066;DHT22;30830;53.704;10.004;2022-10-16T00:05:40;13.00;99.90
45066;DHT22;30830;53.704;10.004;2022-10-16T00:08:07;13.00;99.90
45066;DHT22;30830;53.704;10.004;2022-10-16T00:10:33;12.90;99.90
45066;DHT22;30830;53.704;10.004;2022-10-16T00:12:58;12.90;99.90
45066;DHT22;30830;53.704;10.004;2022-10-16T00:15:24;12.90;99.90
45066;DHT22;30830;53.704;10.004;2022-10-16T00:17:49;12.90;99.90
45066;DHT22;30830;53.704;10.004;2022-10-16T00:20:15;12.90;99.90
45066;DHT22;30830;53.704;10.004;2022-10-16T00:22:41;12.90;99.90
45066;DHT22;30830;53.704;10.004;2022-10-16T00:25:06;12.90;99.90
45066;DHT22;30830;53.704;10.004;2022-10-16T00:27:33;12.80;99.90
45066;DHT22;30830;53.704;10.004;2022-10-16T00:29:59;12.80;99.90
45066;DHT22;30830;53.704;10.004;2022-10-16T00:32:24;12.80;99.90
45066;DHT22;30830;53.704;10.004;2022-10-16T00:34:50;12.80;99.90
45066;DHT22;30830;53.704;10.004;2022-10-16T00:37:15;12.80;99.90
45066;DHT22;30830;53.704;10.004;2022-10-16T00:39:41;12.80;99.90
45066;DHT22;30830;53.704;10.004;2022-10-16T00:42:06;12.80;99.90
45066;DHT22;30830;53.704;10.004;2022-10-16T00:44:53;12.80;99.90
45066;DHT22;30830;53.704;10.004;2022-10-16T00:47:22;12.80;99.90
45066;DHT22;30830;53.704;10.004;2022-10-16T00:49:51;12.80;99.90
45066;DHT22;30830;53.704;10.004;2022-10-16T00:52:18;12.80;99.90
45066;DHT22;30830;53.704;10.004;2022-10-16T00:54:45;12.80;99.90
45066;DHT22;30830;53.704;10.004;2022-10-16T00:57:11;12.80;99.90
45066;DHT22;30830;53.704;10.004;2022-10-16T00:59:39;12.80;99.90
45066;DHT22;30830;53.704;10.004;2022-10-16T01:02:06;12.80;99.90
45066;DHT22;30830;53.704;10.004;2022-10-16T01:04:36;12.80;99.90
45066;DHT22;30830;53.704;10.004;2022-10-16T01:10:14;12.80;99.90
45066;DHT22;30830;53.704;10.004;2022-10-16T01:13:01;12.80;99.90
45066;DHT22;30830;53.704;10.004;2022-10-16T01:18:14;12.80;99.90
45066;DHT22;30830;53.704;10.004;2022-10-16T01:21:06;12.70;99.90
45066;DHT22;30830;53.704;10.004;2022-10-16T01:29:59;12.70;99.90
45066;DHT22;30830;53.704;10.004;2022-10-16T01:37:37;12.70;99.90
45066;DHT22;30830;53.704;10.004;2022-10-16T01:40:10;12.70;99.90
45066;DHT22;30830;53.704;10.004;2022-10-16T01:42:48;12.70;99.90
45066;DHT22;30830;53.704;10.004;2022-10-16T01:45:17;12.60;99.90
45066;DHT22;30830;53.704;10.004;2022-10-16T01:47:44;12.60;99.90
45066;DHT22;30830;53.704;10.004;2022-10-16T01:50:12;12.60;99.90
45066;DHT22;30830;53.704;10.004;2022-10-16T01:52:41;12.60;99.90
45066;DHT22;30830;53.704;10.004;2022-10-16T01:55:09;12.60;99.90
45066;DHT22;30830;53.704;10.004;2022-10-16T01:57:38;12.50;99.90
45066;DHT22;30830;53.704;10.004;2022-10-16T02:00:10;12.50;99.90
45066;DHT22;30830;53.704;10.004;2022-10-16T02:02:42;12.50;99.90
45066;DHT22;30830;53.704;10.004;2022-10-16T02:05:15;12.50;99.90
45066;DHT22;30830;53.704;10.004;2022-10-16T02:07:43;12.40;99.90
45066;DHT22;30830;53.704;10.004;2022-10-16T02:10:09;12.40;99.90
45066;DHT22;30830;53.704;10.004;2022-10-16T02:12:38;12.40;99.90
45066;DHT22;30830;53.704;10.004;2022-10-16T02:15:06;12.40;99.90
45066;DHT22;30830;53.704;10.004;2022-10-16T02:17:31;12.40;99.90
45066;DHT22;30830;53.704;10.004;2022-10-16T02:19:57;12.30;99.90
45066;DHT22;30830;53.704;10.004;2022-10-16T02:22:36;12.30;99.90
45066;DHT22;30830;53.704;10.004;2022-10-16T02:25:15;12.30;99.90
45066;DHT22;30830;53.704;10.004;2022-10-16T02:30:27;12.20;99.90
45066;DHT22;30830;53.704;10.004;2022-10-16T02:32:55;12.20;99.90
45066;DHT22;30830;53.704;10.004;2022-10-16T02:35:23;12.20;99.90
45066;DHT22;30830;53.704;10.004;2022-10-16T02:37:50;12.10;99.90
45066;DHT22;30830;53.704;10.004;2022-10-16T02:40:17;12.10;99.90
45066;DHT22;30830;53.704;10.004;2022-10-16T02:42:43;12.10;99.90
45066;DHT22;30830;53.704;10.004;2022-10-16T02:45:11;12.10;99.90
45066;DHT22;30830;53.704;10.004;2022-10-16T02:47:37;12.10;99.90
45066;DHT22;30830;53.704;10.004;2022-10-16T02:50:03;12.10;99.90
45066;DHT22;30830;53.704;10.004;2022-10-16T02:52:29;12.10;99.90
45066;DHT22;30830;53.704;10.004;2022-10-16T02:54:55;12.00;99.90
45066;DHT22;30830;53.704;10.004;2022-10-16T02:57:20;12.00;99.90
45066;DHT22;30830;53.704;10.004;2022-10-16T02:59:46;12.00;99.90
45066;DHT22;30830;53.704;10.004;2022-10-16T03:02:11;12.00;99.90
45066;DHT22;30830;53.704;10.004;2022-10-16T03:04:38;12.00;99.90
45066;DHT22;30830;53.704;10.004;2022-10-16T03:07:03;11.90;99.90
45066;DHT22;30830;53.704;10.004;2022-10-16T03:09:29;11.90;99.90
45066;DHT22;30830;53.704;10.004;2022-10-16T03:11:54;11.90;99.90
45066;DHT22;30830;53.704;10.004;2022-10-16T03:14:20;11.90;99.90
45066;DHT22;30830;53.704;10.004;2022-10-16T03:16:45;11.90;99.90
45066;DHT22;30830;53.704;10.004;2022-10-16T03:19:11;11.80;99.90
45066;DHT22;30830;53.704;10.004;2022-10-16T03:21:37;11.80;99.90
45066;DHT22;30830;53.704;10.004;2022-10-16T03:24:02;11.80;99.90
45066;DHT22;30830;53.704;10.004;2022-10-16T03:26:28;11.70;99.90
45066;DHT22;30830;53.704;10.004;2022-10-16T03:28:53;11.80;99.90
45066;DHT22;30830;53.704;10.004;2022-10-16T03:31:19;11.70;99.90
45066;DHT22;30830;53.704;10.004;2022-10-16T03:33:44;11.60;99.90
45066;DHT22;30830;53.704;10.004;2022-10-16T03:36:10;11.70;99.90
45066;DHT22;30830;53.704;10.004;2022-10-16T03:38:35;11.60;99.90
45066;DHT22;30830;53.704;10.004;2022-10-16T03:41:01;11.60;99.90
45066;DHT22;30830;53.704;10.004;2022-10-16T03:43:27;11.60;99.90
45066;DHT22;30830;53.704;10.004;2022-10-16T03:45:52;11.60;99.90
45066;DHT22;30830;53.704;10.004;2022-10-16T03:48:18;11.60;99.90
45066;DHT22;30830;53.704;10.004;2022-10-16T03:50:44;11.60;99.90
45066;DHT22;30830;53.704;10.004;2022-10-16T03:53:10;11.60;99.90
45066;DHT22;30830;53.704;10.004;2022-10-16T03:55:36;11.60;99.90
45066;DHT22;30830;53.704;10.004;2022-10-16T03:58:01;11.50;99.90
45066;DHT22;30830;53.704;10.004;2022-10-16T04:00:28;11.60;99.90
45066;DHT22;30830;53.704;10.004;2022-10-16T04:02:54;11.60;99.90
45066;DHT22;30830;53.704;10.004;2022-10-16T04:05:19;11.60;99.90
45066;DHT22;30830;53.704;10.004;2022-10-16T04:07:45;11.50;99.90
45066;DHT22;30830;53.704;10.004;2022-10-16T04:10:10;11.60;99.90
45066;DHT22;30830;53.704;10.004;2022-10-16T04:12:36;11.60;99.90
45066;DHT22;30830;53.704;10.004;2022-10-16T04:15:02;11.60;99.90
45066;DHT22;30830;53.704;10.004;2022-10-16T04:17:28;11.60;99.90
45066;DHT22;30830;53.704;10.004;2022-10-16T04:19:53;11.60;99.90
45066;DHT22;30830;53.704;10.004;2022-10-16T04:22:19;11.60;99.90
45066;DHT22;30830;53.704;10.004;2022-10-16T04:24:44;11.60;99.90
45066;DHT22;30830;53.704;10.004;2022-10-16T04:27:10;11.60;99.90
45066;DHT22;30830;53.704;10.004;2022-10-16T04:29:35;11.60;99.90
45066;DHT22;30830;53.704;10.004;2022-10-16T04:32:01;11.60;99.90
45066;DHT22;30830;53.704;10.004;2022-10-16T04:34:26;11.60;99.90
45066;DHT22;30830;53.704;10.004;2022-10-16T04:36:52;11.60;99.90
45066;DHT22;30830;53.704;10.004;2022-10-16T04:39:18;11.60;99.90
45066;DHT22;30830;53.704;10.004;2022-10-16T04:41:43;11.60;99.90
45066;DHT22;30830;53.704;10.004;2022-10-16T04:44:09;11.50;99.90
45066;DHT22;30830;53.704;10.004;2022-10-16T04:46:34;11.50;99.90
45066;DHT22;30830;53.704;10.004;2022-10-16T04:49:00;11.50;99.90
45066;DHT22;30830;53.704;10.004;2022-10-16T04:51:26;11.50;99.90
45066;DHT22;30830;53.704;10.004;2022-10-16T04:53:53;11.50;99.90
45066;DHT22;30830;53.704;10.004;2022-10-16T04:56:19;11.40;99.90
45066;DHT22;30830;53.704;10.004;2022-10-16T04:58:46;11.40;99.90
45066;DHT22;30830;53.704;10.004;2022-10-16T05:01:11;11.40;99.90
45066;DHT22;30830;53.704;10.004;2022-10-16T05:03:37;11.40;99.90
45066;DHT22;30830;53.704;10.004;2022-10-16T05:06:05;11.50;99.90
45066;DHT22;30830;53.704;10.004;2022-10-16T05:08:31;11.40;99.90
45066;DHT22;30830;53.704;10.004;2022-10-16T05:10:56;11.40;99.90
45066;DHT22;30830;53.704;10.004;2022-10-16T05:13:22;11.50;99.90
45066;DHT22;30830;53.704;10.004;2022-10-16T05:15:48;11.50;99.90
45066;DHT22;30830;53.704;10.004;2022-10-16T05:18:14;11.40;99.90
45066;DHT22;30830;53.704;10.004;2022-10-16T05:20:41;11.50;99.90
45066;DHT22;30830;53.704;10.004;2022-10-16T05:23:07;11.50;99.90
45066;DHT22;30830;53.704;10.004;2022-10-16T05:25:32;11.50;99.90
45066;DHT22;30830;53.704;10.004;2022-10-16T05:27:58;11.50;99.90
45066;DHT22;30830;53.704;10.004;2022-10-16T05:30:23;11.50;99.90
45066;DHT22;30830;53.704;10.004;2022-10-16T05:32:50;11.50;99.90
45066;DHT22;30830;53.704;10.004;2022-10-16T05:35:17;11.60;99.90
45066;DHT22;30830;53.704;10.004;2022-10-16T05:37:42;11.60;99.90
45066;DHT22;30830;53.704;10.004;2022-10-16T05:40:09;11.60;99.90
45066;DHT22;30830;53.704;10.004;2022-10-16T05:42:34;11.70;99.90
45066;DHT22;30830;53.704;10.004;2022-10-16T05:45:00;11.70;99.90
45066;DHT22;30830;53.704;10.004;2022-10-16T05:47:26;11.70;99.90
45066;DHT22;30830;53.704;10.004;2022-10-16T05:49:52;11.70;99.90
45066;DHT22;30830;53.704;10.004;2022-10-16T05:52:17;11.70;99.90
45066;DHT22;30830;53.704;10.004;2022-10-16T05:54:43;11.70;99.90
45066;DHT22;30830;53.704;10.004;2022-10-16T05:57:08;11.70;99.90
45066;DHT22;30830;53.704;10.004;2022-10-16T05:59:34;11.80;99.90
45066;DHT22;30830;53.704;10.004;2022-10-16T06:02:00;11.70;99.90
45066;DHT22;30830;53.704;10.004;2022-10-16T06:04:25;11.70;99.90
45066;DHT22;30830;53.704;10.004;2022-10-16T06:06:51;11.70;99.90
45066;DHT22;30830;53.704;10.004;2022-10-16T06:09:17;11.70;99.90
45066;DHT22;30830;53.704;10.004;2022-10-16T06:11:42;11.70;99.90
45066;DHT22;30830;53.704;10.004;2022-10-16T06:14:08;11.70;99.90
45066;DHT22;30830;53.704;10.004;2022-10-16T06:16:35;11.70;99.90
45066;DHT22;30830;53.704;10.004;2022-10-16T06:19:02;11.80;99.90
45066;DHT22;30830;53.704;10.004;2022-10-16T06:21:29;11.70;99.90
45066;DHT22;30830;53.704;10.004;2022-10-16T06:23:55;11.70;99.90
45066;DHT22;30830;53.704;10.004;2022-10-16T06:26:25;11.80;99.90
45066;DHT22;30830;53.704;10.004;2022-10-16T06:28:51;11.80;99.90
45066;DHT22;30830;53.704;10.004;2022-10-16T06:31:17;11.80;99.90
45066;DHT22;30830;53.704;10.004;2022-10-16T06:33:42;11.80;99.90
45066;DHT22;30830;53.704;10.004;2022-10-16T06:36:13;11.80;99.90
45066;DHT22;30830;53.704;10.004;2022-10-16T06:38:40;11.80;99.90
45066;DHT22;30830;53.704;10.004;2022-10-16T06:41:06;11.90;99.90
45066;DHT22;30830;53.704;10.004;2022-10-16T06:43:33;11.90;99.90
45066;DHT22;30830;53.704;10.004;2022-10-16T06:46:01;11.90;99.90
45066;DHT22;30830;53.704;10.004;2022-10-16T06:48:28;11.90;99.90
45066;DHT22;30830;53.704;10.004;2022-10-16T06:51:11;11.90;99.90
45066;DHT22;30830;53.704;10.004;2022-10-16T06:53:40;12.00;99.90
45066;DHT22;30830;53.704;10.004;2022-10-16T06:58:37;12.10;99.90
45066;DHT22;30830;53.704;10.004;2022-10-16T07:01:04;12.10;99.90
45066;DHT22;30830;53.704;10.004;2022-10-16T07:03:29;12.20;99.90
45066;DHT22;30830;53.704;10.004;2022-10-16T07:05:55;12.30;99.90
45066;DHT22;30830;53.704;10.004;2022-10-16T07:08:21;12.30;99.90
45066;DHT22;30830;53.704;10.004;2022-10-16T07:10:47;12.40;99.90
45066;DHT22;30830;53.704;10.004;2022-10-16T07:13:12;12.50;99.90
45066;DHT22;30830;53.704;10.004;2022-10-16T07:15:39;12.60;99.90
45066;DHT22;30830;53.704;10.004;2022-10-16T07:18:05;12.80;99.90
45066;DHT22;30830;53.704;10.004;2022-10-16T07:20:31;12.80;99.90
45066;DHT22;30830;53.704;10.004;2022-10-16T07:22:56;12.90;99.90
45066;DHT22;30830;53.704;10.004;2022-10-16T07:25:22;12.90;99.90
45066;DHT22;30830;53.704;10.004;2022-10-16T07:27:47;13.00;99.90
45066;DHT22;30830;53.704;10.004;2022-10-16T07:30:13;13.00;99.90
45066;DHT22;30830;53.704;10.004;2022-10-16T07:32:38;13.10;99.90
45066;DHT22;30830;53.704;10.004;2022-10-16T07:35:04;13.10;99.90
45066;DHT22;30830;53.704;10.004;2022-10-16T07:37:30;13.20;99.90
45066;DHT22;30830;53.704;10.004;2022-10-16T07:39:56;13.30;99.90
45066;DHT22;30830;53.704;10.004;2022-10-16T07:42:21;13.30;99.90
45066;DHT22;30830;53.704;10.004;2022-10-16T07:44:47;13.40;99.90
45066;DHT22;30830;53.704;10.004;2022-10-16T07:47:12;13.40;99.90
45066;DHT22;30830;53.704;10.004;2022-10-16T07:49:38;13.50;99.90
45066;DHT22;30830;53.704;10.004;2022-10-16T07:52:03;13.50;99.90
45066;DHT22;30830;53.704;10.004;2022-10-16T07:54:29;13.50;99.90
45066;DHT22;30830;53.704;10.004;2022-10-16T07:56:55;13.60;99.90
45066;DHT22;30830;53.704;10.004;2022-10-16T07:59:20;13.60;99.90
45066;DHT22;30830;53.704;10.004;2022-10-16T08:01:46;13.60;99.90
45066;DHT22;30830;53.704;10.004;2022-10-16T08:04:11;13.60;99.90
45066;DHT22;30830;53.704;10.004;2022-10-16T08:06:39;13.60;99.90
45066;DHT22;30830;53.704;10.004;2022-10-16T08:09:06;13.60;99.90
45066;DHT22;30830;53.704;10.004;2022-10-16T08:11:32;13.60;99.90
45066;DHT22;30830;53.704;10.004;2022-10-16T08:13:57;13.60;99.90
45066;DHT22;30830;53.704;10.004;2022-10-16T08:16:23;13.60;99.90
45066;DHT22;30830;53.704;10.004;2022-10-16T08:18:49;13.60;99.90
45066;DHT22;30830;53.704;10.004;2022-10-16T08:21:18;13.60;99.90
45066;DHT22;30830;53.704;10.004;2022-10-16T08:23:43;13.70;99.90
45066;DHT22;30830;53.704;10.004;2022-10-16T08:26:10;13.70;99.90
45066;DHT22;30830;53.704;10.004;2022-10-16T08:28:36;13.80;99.90
45066;DHT22;30830;53.704;10.004;2022-10-16T08:31:13;13.80;99.90
45066;DHT22;30830;53.704;10.004;2022-10-16T08:33:42;13.80;99.90
45066;DHT22;30830;53.704;10.004;2022-10-16T08:36:10;13.90;99.90
45066;DHT22;30830;53.704;10.004;2022-10-16T08:38:36;14.10;99.90
45066;DHT22;30830;53.704;10.004;2022-10-16T08:41:27;14.10;99.90
45066;DHT22;30830;53.704;10.004;2022-10-16T08:46:37;14.30;99.90
45066;DHT22;30830;53.704;10.004;2022-10-16T08:49:10;14.30;99.90
45066;DHT22;30830;53.704;10.004;2022-10-16T08:51:37;14.30;99.90
45066;DHT22;30830;53.704;10.004;2022-10-16T08:54:05;14.30;99.90
45066;DHT22;30830;53.704;10.004;2022-10-16T08:56:31;14.30;99.90
45066;DHT22;30830;53.704;10.004;2022-10-16T08:58:59;14.40;99.90
45066;DHT22;30830;53.704;10.004;2022-10-16T09:01:38;14.40;99.90
45066;DHT22;30830;53.704;10.004;2022-10-16T09:07:24;14.50;99.90
45066;DHT22;30830;53.704;10.004;2022-10-16T09:16:32;14.50;99.90
45066;DHT22;30830;53.704;10.004;2022-10-16T09:21:33;14.50;99.90
45066;DHT22;30830;53.704;10.004;2022-10-16T09:24:20;14.50;99.90
45066;DHT22;30830;53.704;10.004;2022-10-16T09:26:46;14.60;99.90
45066;DHT22;30830;53.704;10.004;2022-10-16T09:29:18;14.60;99.90
45066;DHT22;30830;53.704;10.004;2022-10-16T09:31:50;14.60;99.90
45066;DHT22;30830;53.704;10.004;2022-10-16T09:36:51;14.80;99.90
45066;DHT22;30830;53.704;10.004;2022-10-16T09:39:17;15.00;99.90
45066;DHT22;30830;53.704;10.004;2022-10-16T09:41:45;15.00;99.90
45066;DHT22;30830;53.704;10.004;2022-10-16T09:44:30;15.00;99.90
45066;DHT22;30830;53.704;10.004;2022-10-16T09:47:14;15.10;99.90
45066;DHT22;30830;53.704;10.004;2022-10-16T09:49:57;15.10;99.90
45066;DHT22;30830;53.704;10.004;2022-10-16T09:52:25;15.20;99.90
45066;DHT22;30830;53.704;10.004;2022-10-16T09:55:14;15.30;99.90
45066;DHT22;30830;53.704;10.004;2022-10-16T09:57:53;15.40;99.90
45066;DHT22;30830;53.704;10.004;2022-10-16T10:00:20;15.40;99.90
45066;DHT22;30830;53.704;10.004;2022-10-16T10:02:46;15.40;99.90
45066;DHT22;30830;53.704;10.004;2022-10-16T10:05:29;15.50;99.90
45066;DHT22;30830;53.704;10.004;2022-10-16T10:07:59;15.50;99.90
45066;DHT22;30830;53.704;10.004;2022-10-16T10:10:27;15.50;99.90
45066;DHT22;30830;53.704;10.004;2022-10-16T10:12:54;15.60;99.90
45066;DHT22;30830;53.704;10.004;2022-10-16T10:15:21;15.70;99.90
45066;DHT22;30830;53.704;10.004;2022-10-16T10:17:53;15.70;99.90
45066;DHT22;30830;53.704;10.004;2022-10-16T10:20:35;15.70;99.90
45066;DHT22;30830;53.704;10.004;2022-10-16T10:23:26;15.70;99.90
45066;DHT22;30830;53.704;10.004;2022-10-16T10:31:19;15.80;99.90
45066;DHT22;30830;53.704;10.004;2022-10-16T10:34:00;15.90;99.90
45066;DHT22;30830;53.704;10.004;2022-10-16T10:36:36;15.90;99.90
45066;DHT22;30830;53.704;10.004;2022-10-16T10:42:07;16.00;99.90
45066;DHT22;30830;53.704;10.004;2022-10-16T10:44:42;16.00;99.90
45066;DHT22;30830;53.704;10.004;2022-10-16T10:47:39;16.00;99.90
45066;DHT22;30830;53.704;10.004;2022-10-16T10:50:36;16.00;99.90
45066;DHT22;30830;53.704;10.004;2022-10-16T10:56:21;16.00;99.90
45066;DHT22;30830;53.704;10.004;2022-10-16T10:59:28;16.00;99.90
45066;DHT22;30830;53.704;10.004;2022-10-16T11:04:49;16.10;99.90
45066;DHT22;30830;53.704;10.004;2022-10-16T11:07:34;16.10;99.90
45066;DHT22;30830;53.704;10.004;2022-10-16T11:10:14;16.20;99.90
45066;DHT22;30830;53.704;10.004;2022-10-16T11:12:44;16.20;99.90
45066;DHT22;30830;53.704;10.004;2022-10-16T11:15:13;16.20;99.90
45066;DHT22;30830;53.704;10.004;2022-10-16T11:18:32;16.30;99.90
45066;DHT22;30830;53.704;10.004;2022-10-16T11:20:42;16.30;99.90
45066;DHT22;30830;53.704;10.004;2022-10-16T11:25:45;16.50;99.90
45066;DHT22;30830;53.704;10.004;2022-10-16T11:28:23;16.50;99.90
45066;DHT22;30830;53.704;10.004;2022-10-16T11:30:59;16.50;99.90
45066;DHT22;30830;53.704;10.004;2022-10-16T11:33:35;16.60;99.90
45066;DHT22;30830;53.704;10.004;2022-10-16T11:36:16;16.70;99.90
45066;DHT22;30830;53.704;10.004;2022-10-16T11:47:18;16.60;99.90
45066;DHT22;30830;53.704;10.004;2022-10-16T11:49:45;16.60;99.90
45066;DHT22;30830;53.704;10.004;2022-10-16T11:52:20;16.40;99.90
45066;DHT22;30830;53.704;10.004;2022-10-16T11:54:52;16.40;99.90
45066;DHT22;30830;53.704;10.004;2022-10-16T11:57:35;16.40;99.90
45066;DHT22;30830;53.704;10.004;2022-10-16T12:05:33;16.40;99.90
45066;DHT22;30830;53.704;10.004;2022-10-16T12:08:08;16.50;99.90
45066;DHT22;30830;53.704;10.004;2022-10-16T12:10:36;16.50;99.90
45066;DHT22;30830;53.704;10.004;2022-10-16T12:13:03;16.50;99.90
45066;DHT22;30830;53.704;10.004;2022-10-16T12:15:32;16.50;99.90
45066;DHT22;30830;53.704;10.004;2022-10-16T12:17:58;16.60;99.90
45066;DHT22;30830;53.704;10.004;2022-10-16T12:20:33;16.70;99.90
45066;DHT22;30830;53.704;10.004;2022-10-16T12:23:06;16.80;99.90
45066;DHT22;30830;53.704;10.004;2022-10-16T12:25:36;16.90;99.90
45066;DHT22;30830;53.704;10.004;2022-10-16T12:28:27;16.90;99.90
45066;DHT22;30830;53.704;10.004;2022-10-16T12:31:00;16.80;99.90
45066;DHT22;30830;53.704;10.004;2022-10-16T12:35:59;16.70;99.90
45066;DHT22;30830;53.704;10.004;2022-10-16T12:38:45;16.70;99.90
45066;DHT22;30830;53.704;10.004;2022-10-16T12:41:11;16.50;99.90
45066;DHT22;30830;53.704;10.004;2022-10-16T12:43:47;16.40;99.90
45066;DHT22;30830;53.704;10.004;2022-10-16T12:48:40;16.40;99.90
45066;DHT22;30830;53.704;10.004;2022-10-16T12:51:40;16.40;99.90
45066;DHT22;30830;53.704;10.004;2022-10-16T13:02:30;16.60;99.90
45066;DHT22;30830;53.704;10.004;2022-10-16T13:05:13;16.70;99.90
45066;DHT22;30830;53.704;10.004;2022-10-16T13:10:23;16.70;99.90
45066;DHT22;30830;53.704;10.004;2022-10-16T13:18:27;16.80;99.90
45066;DHT22;30830;53.704;10.004;2022-10-16T13:23:42;16.90;99.90
45066;DHT22;30830;53.704;10.004;2022-10-16T13:26:18;16.90;99.90
45066;DHT22;30830;53.704;10.004;2022-10-16T13:28:47;16.80;99.90
45066;DHT22;30830;53.704;10.004;2022-10-16T13:31:17;16.80;99.90
45066;DHT22;30830;53.704;10.004;2022-10-16T13:33:47;16.90;99.90
45066;DHT22;30830;53.704;10.004;2022-10-16T13:36:22;16.90;99.90
45066;DHT22;30830;53.704;10.004;2022-10-16T13:41:36;16.80;99.90
45066;DHT22;30830;53.704;10.004;2022-10-16T13:44:02;16.80;99.90
45066;DHT22;30830;53.704;10.004;2022-10-16T13:46:28;16.80;99.90
45066;DHT22;30830;53.704;10.004;2022-10-16T13:48:58;16.70;99.90
45066;DHT22;30830;53.704;10.004;2022-10-16T13:51:25;16.80;99.90
45066;DHT22;30830;53.704;10.004;2022-10-16T13:53:50;16.70;99.90
45066;DHT22;30830;53.704;10.004;2022-10-16T13:56:18;16.60;99.90
45066;DHT22;30830;53.704;10.004;2022-10-16T13:58:45;16.60;99.90
45066;DHT22;30830;53.704;10.004;2022-10-16T14:01:20;16.60;99.90
45066;DHT22;30830;53.704;10.004;2022-10-16T14:03:48;16.50;99.90
45066;DHT22;30830;53.704;10.004;2022-10-16T14:06:17;16.50;99.90
45066;DHT22;30830;53.704;10.004;2022-10-16T14:08:46;16.50;99.90
45066;DHT22;30830;53.704;10.004;2022-10-16T14:11:21;16.40;99.90
45066;DHT22;30830;53.704;10.004;2022-10-16T14:13:49;16.50;99.90
45066;DHT22;30830;53.704;10.004;2022-10-16T14:16:27;16.50;99.90
45066;DHT22;30830;53.704;10.004;2022-10-16T14:19:03;16.50;99.90
45066;DHT22;30830;53.704;10.004;2022-10-16T14:21:30;16.40;99.90
45066;DHT22;30830;53.704;10.004;2022-10-16T14:23:57;16.40;99.90
45066;DHT22;30830;53.704;10.004;2022-10-16T14:26:26;16.30;99.90
45066;DHT22;30830;53.704;10.004;2022-10-16T14:29:25;16.30;99.90
45066;DHT22;30830;53.704;10.004;2022-10-16T14:32:02;16.20;99.90
45066;DHT22;30830;53.704;10.004;2022-10-16T14:34:34;16.20;99.90
45066;DHT22;30830;53.704;10.004;2022-10-16T14:37:14;16.10;99.90
45066;DHT22;30830;53.704;10.004;2022-10-16T14:39:49;16.10;99.90
45066;DHT22;30830;53.704;10.004;2022-10-16T14:42:17;16.00;99.90
45066;DHT22;30830;53.704;10.004;2022-10-16T14:44:44;16.00;99.90
45066;DHT22;30830;53.704;10.004;2022-10-16T14:47:14;16.00;99.90
45066;DHT22;30830;53.704;10.004;2022-10-16T14:49:42;15.90;99.90
45066;DHT22;30830;53.704;10.004;2022-10-16T14:52:12;16.00;99.90
45066;DHT22;30830;53.704;10.004;2022-10-16T14:54:38;15.90;99.90
45066;DHT22;30830;53.704;10.004;2022-10-16T14:57:04;15.90;99.90
45066;DHT22;30830;53.704;10.004;2022-10-16T14:59:41;15.90;99.90
45066;DHT22;30830;53.704;10.004;2022-10-16T15:02:30;15.80;99.90
45066;DHT22;30830;53.704;10.004;2022-10-16T15:04:56;15.80;99.90
45066;DHT22;30830;53.704;10.004;2022-10-16T15:07:23;15.70;99.90
45066;DHT22;30830;53.704;10.004;2022-10-16T15:09:49;15.70;99.90
45066;DHT22;30830;53.704;10.004;2022-10-16T15:12:15;15.70;99.90
45066;DHT22;30830;53.704;10.004;2022-10-16T15:14:41;15.70;99.90
45066;DHT22;30830;53.704;10.004;2022-10-16T15:17:11;15.60;99.90
45066;DHT22;30830;53.704;10.004;2022-10-16T15:19:37;15.60;99.90
45066;DHT22;30830;53.704;10.004;2022-10-16T15:22:03;15.60;99.90
45066;DHT22;30830;53.704;10.004;2022-10-16T15:24:29;15.50;99.90
45066;DHT22;30830;53.704;10.004;2022-10-16T15:26:54;15.50;99.90
45066;DHT22;30830;53.704;10.004;2022-10-16T15:29:20;15.40;99.90
45066;DHT22;30830;53.704;10.004;2022-10-16T15:31:46;15.30;99.90
45066;DHT22;30830;53.704;10.004;2022-10-16T15:34:14;15.30;99.90
45066;DHT22;30830;53.704;10.004;2022-10-16T15:36:40;15.20;99.90
45066;DHT22;30830;53.704;10.004;2022-10-16T15:39:13;15.20;99.90
45066;DHT22;30830;53.704;10.004;2022-10-16T15:41:39;15.10;99.90
45066;DHT22;30830;53.704;10.004;2022-10-16T15:44:04;15.00;99.90
45066;DHT22;30830;53.704;10.004;2022-10-16T15:46:30;15.00;99.90
45066;DHT22;30830;53.704;10.004;2022-10-16T15:48:58;14.90;99.90
45066;DHT22;30830;53.704;10.004;2022-10-16T15:51:24;14.80;99.90
45066;DHT22;30830;53.704;10.004;2022-10-16T15:53:50;14.70;99.90
45066;DHT22;30830;53.704;10.004;2022-10-16T15:56:17;14.70;99.90
45066;DHT22;30830;53.704;10.004;2022-10-16T15:58:43;14.60;99.90
45066;DHT22;30830;53.704;10.004;2022-10-16T16:01:09;14.50;99.90
45066;DHT22;30830;53.704;10.004;2022-10-16T16:03:37;14.40;99.90
45066;DHT22;30830;53.704;10.004;2022-10-16T16:06:10;14.40;99.90
45066;DHT22;30830;53.704;10.004;2022-10-16T16:08:36;14.30;99.90
45066;DHT22;30830;53.704;10.004;2022-10-16T16:11:06;14.30;99.90
45066;DHT22;30830;53.704;10.004;2022-10-16T16:13:32;14.20;99.90
45066;DHT22;30830;53.704;10.004;2022-10-16T16:15:58;14.20;99.90
45066;DHT22;30830;53.704;10.004;2022-10-16T16:18:24;14.10;99.90
45066;DHT22;30830;53.704;10.004;2022-10-16T16:20:50;14.00;99.90
45066;DHT22;30830;53.704;10.004;2022-10-16T16:23:16;14.00;99.90
45066;DHT22;30830;53.704;10.004;2022-10-16T16:25:42;13.90;99.90
45066;DHT22;30830;53.704;10.004;2022-10-16T16:28:07;13.80;99.90
45066;DHT22;30830;53.704;10.004;2022-10-16T16:30:36;13.80;99.90
45066;DHT22;30830;53.704;10.004;2022-10-16T16:33:01;13.70;99.90
45066;DHT22;30830;53.704;10.004;2022-10-16T16:35:27;13.60;99.90
45066;DHT22;30830;53.704;10.004;2022-10-16T16:37:52;13.60;99.90
45066;DHT22;30830;53.704;10.004;2022-10-16T16:40:18;13.50;99.90
45066;DHT22;30830;53.704;10.004;2022-10-16T16:42:43;13.40;99.90
45066;DHT22;30830;53.704;10.004;2022-10-16T16:45:09;13.40;99.90
45066;DHT22;30830;53.704;10.004;2022-10-16T16:47:35;13.30;99.90
45066;DHT22;30830;53.704;10.004;2022-10-16T16:50:00;13.20;99.90
45066;DHT22;30830;53.704;10.004;2022-10-16T16:52:30;13.20;99.90
45066;DHT22;30830;53.704;10.004;2022-10-16T16:54:55;13.10;99.90
45066;DHT22;30830;53.704;10.004;2022-10-16T16:57:21;13.10;99.90
45066;DHT22;30830;53.704;10.004;2022-10-16T16:59:47;13.00;99.90
45066;DHT22;30830;53.704;10.004;2022-10-16T17:02:15;13.00;99.90
45066;DHT22;30830;53.704;10.004;2022-10-16T17:04:40;12.90;99.90